Time;durP1;ratioP1;P1;durP2;ratioP2;P2;SDS_P1;SDS_P2;PMS_P1;PMS_P2;Temp;Humidity;BMP_temperature;BMP_pressure;BME280_temperature;BME280_humidity;BME280_pressure;Samples;Min_cycle;Max_cycle;Signal;HPM_P1;HPM_P2
2023/02/27 00:01:07;;;;;;;3.03;1.63;;;26.60;56.60;;;;;;5145048;23;20056;-43
2023/02/27 00:03:29;;;;;;;3.42;1.75;;;26.50;55.90;;;;;;5131321;23;20017;-44
2023/02/27 00:05:52;;;;;;;4.05;1.67;;;26.40;56.00;;;;;;5145292;23;20358;-43
2023/02/27 00:08:14;;;;;;;2.92;1.58;;;26.20;55.70;;;;;;5143675;23;20023;-40
2023/02/27 00:10:37;;;;;;;2.22;1.33;;;26.10;55.80;;;;;;5141362;23;20048;-43
2023/02/27 00:12:59;;;;;;;2.55;1.40;;;26.00;55.50;;;;;;5140942;23;20028;-42
2023/02/27 00:15:22;;;;;;;2.95;1.75;;;25.90;55.50;;;;;;5143073;23;20047;-40
2023/02/27 00:17:45;;;;;;;2.92;1.38;;;25.80;56.00;;;;;;5144764;23;20029;-40
2023/02/27 00:20:12;;;;;;;2.85;1.60;;;25.70;55.80;;;;;;5144452;23;20095;-44
2023/02/27 00:22:34;;;;;;;4.35;1.55;;;25.60;55.10;;;;;;5130093;23;20020;-42
2023/02/27 00:24:57;;;;;;;2.15;1.40;;;25.50;55.20;;;;;;5145165;23;20017;-45
2023/02/27 00:27:19;;;;;;;2.17;1.25;;;25.40;55.10;;;;;;5140666;23;20123;-41
2023/02/27 00:29:42;;;;;;;3.58;1.30;;;25.30;55.40;;;;;;5143209;23;20118;-40
2023/02/27 00:32:07;;;;;;;2.38;1.40;;;25.20;56.30;;;;;;5144474;23;20094;-44
2023/02/27 00:34:29;;;;;;;3.35;1.25;;;25.10;55.50;;;;;;5135270;23;20016;-43
2023/02/27 00:36:52;;;;;;;2.03;1.17;;;25.00;55.70;;;;;;5144840;23;20048;-41
2023/02/27 00:39:14;;;;;;;2.47;1.20;;;24.90;56.00;;;;;;5141582;23;20016;-42
2023/02/27 00:41:37;;;;;;;2.47;1.40;;;24.80;55.50;;;;;;5135158;23;20099;-44
2023/02/27 00:43:59;;;;;;;2.80;1.35;;;24.80;55.40;;;;;;5142940;23;20017;-44
2023/02/27 00:46:21;;;;;;;2.40;1.35;;;24.70;54.80;;;;;;5143062;23;20060;-42
2023/02/27 00:48:44;;;;;;;5.40;1.52;;;24.60;55.80;;;;;;5142166;23;20446;-42
2023/02/27 00:51:06;;;;;;;2.22;1.10;;;24.50;56.00;;;;;;5142454;23;20016;-40
2023/02/27 00:53:29;;;;;;;1.85;1.17;;;24.40;56.00;;;;;;5143277;23;20469;-41
2023/02/27 00:55:51;;;;;;;1.45;1.20;;;24.30;56.00;;;;;;5141522;23;20095;-40
2023/02/27 00:58:13;;;;;;;3.20;1.40;;;24.30;55.90;;;;;;5132646;23;20012;-42
2023/02/27 01:00:36;;;;;;;1.60;0.90;;;24.20;55.10;;;;;;5142649;23;20446;-43
2023/02/27 01:02:59;;;;;;;2.55;1.30;;;24.10;55.50;;;;;;5137818;23;20478;-43
2023/02/27 01:05:22;;;;;;;2.83;1.13;;;24.00;55.10;;;;;;5143366;23;20289;-43
2023/02/27 01:07:45;;;;;;;1.83;1.07;;;23.90;55.40;;;;;;5129428;23;20023;-41
2023/02/27 01:10:08;;;;;;;1.67;0.93;;;23.80;55.30;;;;;;5133415;23;20090;-42
2023/02/27 01:12:31;;;;;;;2.07;1.10;;;23.80;56.00;;;;;;5141877;23;20100;-42
2023/02/27 01:14:53;;;;;;;2.42;1.55;;;23.80;56.10;;;;;;5141297;23;20249;-42
2023/02/27 01:17:16;;;;;;;3.65;1.42;;;23.70;56.30;;;;;;5133463;23;20020;-43
2023/02/27 01:19:38;;;;;;;3.25;1.40;;;23.60;60.00;;;;;;5143174;23;20509;-47
2023/02/27 01:22:01;;;;;;;2.78;1.30;;;23.60;64.50;;;;;;5142882;23;20013;-44
2023/02/27 01:24:23;;;;;;;2.08;1.40;;;23.60;63.80;;;;;;5141879;23;20012;-42
2023/02/27 01:26:46;;;;;;;2.17;1.40;;;23.60;60.80;;;;;;5140631;23;20072;-44
2023/02/27 01:29:09;;;;;;;2.17;1.40;;;23.60;59.40;;;;;;5134250;23;20009;-43
2023/02/27 01:31:31;;;;;;;1.95;1.30;;;23.50;58.60;;;;;;5129993;23;20016;-42
2023/02/27 01:33:54;;;;;;;2.35;1.30;;;23.50;57.70;;;;;;5144460;23;20399;-43
2023/02/27 01:36:16;;;;;;;1.90;1.15;;;23.40;57.70;;;;;;5148824;22;20012;-43
2023/02/27 01:38:39;;;;;;;3.00;1.08;;;23.30;57.50;;;;;;5145782;23;20016;-40
2023/02/27 01:41:03;;;;;;;2.72;1.35;;;23.30;57.80;;;;;;5145955;23;20462;-44
2023/02/27 01:43:25;;;;;;;2.95;1.30;;;23.20;58.50;;;;;;5135523;23;20012;-43
2023/02/27 01:45:48;;;;;;;2.58;1.30;;;23.30;58.40;;;;;;5146462;23;20110;-43
2023/02/27 01:48:19;;;;;;;2.45;1.27;;;23.30;59.90;;;;;;5135400;23;20012;-43
2023/02/27 01:51:04;;;;;;;3.90;1.50;;;23.40;60.90;;;;;;5137255;23;20016;-40
2023/02/27 01:53:28;;;;;;;4.15;1.30;;;23.50;61.90;;;;;;5144243;23;20024;-41
2023/02/27 01:55:57;;;;;;;1.50;1.02;;;23.70;62.10;;;;;;5146273;23;20012;-43
2023/02/27 01:58:20;;;;;;;1.88;1.15;;;23.80;62.40;;;;;;5146344;23;20450;-43
2023/02/27 02:00:42;;;;;;;2.50;1.08;;;23.90;62.80;;;;;;5147239;23;20016;-42
2023/02/27 02:03:08;;;;;;;2.50;1.20;;;24.10;62.80;;;;;;5144101;23;20027;-42
2023/02/27 02:05:31;;;;;;;2.50;0.80;;;24.20;62.90;;;;;;5147010;23;20020;-42
2023/02/27 02:07:54;;;;;;;2.80;1.38;;;24.30;62.90;;;;;;5146933;23;20077;-43
2023/02/27 02:10:19;;;;;;;3.50;1.10;;;24.40;63.00;;;;;;5146076;23;20347;-42
2023/02/27 02:12:42;;;;;;;1.90;0.93;;;24.50;63.10;;;;;;5145507;23;20020;-42
2023/02/27 02:15:06;;;;;;;1.83;1.08;;;24.60;63.00;;;;;;5144565;23;20031;-43
2023/02/27 02:17:57;;;;;;;5.10;1.52;;;24.70;63.10;;;;;;5146752;23;20462;-42
2023/02/27 02:20:47;;;;;;;3.30;1.30;;;24.80;63.10;;;;;;5137920;23;20107;-43
2023/02/27 02:23:28;;;;;;;3.70;1.52;;;24.90;63.10;;;;;;5146295;23;20012;-42
2023/02/27 02:26:21;;;;;;;5.38;2.00;;;25.10;63.20;;;;;;5144079;23;20135;-42
2023/02/27 02:29:09;;;;;;;6.65;1.95;;;25.10;63.10;;;;;;5112196;23;20091;-42
2023/02/27 02:31:34;;;;;;;3.92;2.28;;;25.30;63.30;;;;;;5145798;23;20023;-43
2023/02/27 02:34:09;;;;;;;3.85;2.58;;;25.30;63.00;;;;;;5141069;23;20200;-43
2023/02/27 02:36:59;;;;;;;3.95;2.60;;;25.40;62.90;;;;;;5144170;23;20066;-43
2023/02/27 02:39:55;;;;;;;6.88;2.70;;;25.40;62.70;;;;;;5144325;23;20027;-43
2023/02/27 02:42:34;;;;;;;5.60;3.17;;;25.50;63.00;;;;;;5140044;23;20082;-44
2023/02/27 02:45:06;;;;;;;4.35;2.70;;;25.50;63.20;;;;;;5143108;23;20039;-43
2023/02/27 02:48:11;;;;;;;7.50;3.30;;;25.60;63.20;;;;;;5142557;23;20024;-42
2023/02/27 02:50:44;;;;;;;4.28;2.72;;;25.70;63.40;;;;;;5142617;23;20035;-42
2023/02/27 02:53:32;;;;;;;4.78;2.80;;;25.70;63.30;;;;;;5130531;23;20351;-45
2023/02/27 02:56:35;;;;;;;5.35;2.85;;;25.80;63.50;;;;;;5138549;23;20021;-43
2023/02/27 02:59:06;;;;;;;4.90;2.78;;;25.90;63.60;;;;;;5114722;23;20580;-42
2023/02/27 03:01:32;;;;;;;4.75;2.78;;;26.00;64.30;;;;;;5141608;23;20345;-41
2023/02/27 03:04:24;;;;;;;5.40;2.83;;;26.00;63.50;;;;;;5145093;23;20115;-39
2023/02/27 03:06:55;;;;;;;3.78;2.42;;;26.10;63.60;;;;;;5145203;23;20110;-42
2023/02/27 03:09:31;;;;;;;13.52;2.83;;;26.20;63.60;;;;;;5144143;23;20074;-46
2023/02/27 03:11:58;;;;;;;5.15;2.47;;;26.30;63.50;;;;;;5145098;23;20524;-43
2023/02/27 03:15:02;;;;;;;4.57;2.60;;;26.30;63.50;;;;;;5145607;23;20012;-44
2023/02/27 03:17:43;;;;;;;3.30;2.30;;;26.40;63.60;;;;;;5034514;23;20030;-40
2023/02/27 03:20:15;;;;;;;5.20;2.25;;;26.40;63.60;;;;;;5042889;23;20228;-44
2023/02/27 03:22:40;;;;;;;8.23;2.75;;;26.40;63.70;;;;;;5110901;23;20017;-44
2023/02/27 03:25:06;;;;;;;3.25;2.28;;;26.50;63.70;;;;;;5144980;23;20020;-41
2023/02/27 03:27:35;;;;;;;4.45;2.40;;;26.50;63.80;;;;;;5144243;23;20038;-41
2023/02/27 03:30:33;;;;;;;4.97;2.13;;;26.60;63.90;;;;;;5140693;23;20042;-42
2023/02/27 03:33:12;;;;;;;5.65;2.10;;;26.70;63.90;;;;;;5123721;23;20056;-46
2023/02/27 03:35:50;;;;;;;4.90;1.80;;;26.70;63.70;;;;;;5141674;23;20438;-48
2023/02/27 03:38:51;;;;;;;4.95;1.80;;;26.70;63.90;;;;;;5141887;23;20020;-48
2023/02/27 03:41:18;;;;;;;3.55;2.38;;;26.80;63.90;;;;;;5041918;23;20120;-43
2023/02/27 03:44:03;;;;;;;2.88;1.70;;;26.70;63.90;;;;;;5138740;23;20438;-49
2023/02/27 03:46:27;;;;;;;3.58;1.60;;;26.70;63.90;;;;;;5142319;23;20021;-44
2023/02/27 03:48:49;;;;;;;4.63;2.00;;;26.80;63.90;;;;;;5141580;23;20074;-43
2023/02/27 03:51:17;;;;;;;3.97;1.80;;;26.80;64.00;;;;;;5143917;23;20450;-44
2023/02/27 03:53:59;;;;;;;3.63;1.60;;;26.90;64.10;;;;;;5143944;23;20027;-43
2023/02/27 03:56:30;;;;;;;3.45;1.48;;;27.00;64.00;;;;;;5140296;23;20128;-45
2023/02/27 03:58:54;;;;;;;8.90;1.50;;;27.00;63.90;;;;;;5144757;23;20009;-44
2023/02/27 04:01:16;;;;;;;5.32;1.30;;;27.10;64.00;;;;;;5144199;23;20051;-44
2023/02/27 04:04:05;;;;;;;2.33;1.53;;;27.10;63.80;;;;;;5142161;23;20075;-45
2023/02/27 04:09:24;;;;;;;15.05;2.00;;;27.20;63.80;;;;;;5139545;23;20017;-42
2023/02/27 04:12:09;;;;;;;3.85;1.88;;;27.30;62.90;;;;;;5143907;23;20031;-42
2023/02/27 04:14:50;;;;;;;3.35;1.80;;;27.00;59.10;;;;;;5142830;23;20012;-44
2023/02/27 04:17:23;;;;;;;3.45;1.88;;;26.80;57.60;;;;;;5139994;23;20035;-40
2023/02/27 04:19:59;;;;;;;2.47;1.70;;;26.60;56.70;;;;;;5142859;23;20048;-42
2023/02/27 04:22:39;;;;;;;2.38;1.55;;;26.40;56.80;;;;;;5140947;23;20008;-45
2023/02/27 04:25:11;;;;;;;2.88;1.70;;;26.20;56.50;;;;;;5139458;23;20012;-42
2023/02/27 04:27:57;;;;;;;3.40;1.77;;;26.10;56.00;;;;;;5142007;23;20103;-42
2023/02/27 04:30:23;;;;;;;3.47;2.00;;;25.90;56.80;;;;;;5130782;23;20016;-41
2023/02/27 04:32:59;;;;;;;3.47;1.70;;;25.70;56.40;;;;;;5143541;23;20522;-41
2023/02/27 04:35:33;;;;;;;3.95;1.98;;;25.60;56.50;;;;;;5143534;23;20008;-43
2023/02/27 04:38:03;;;;;;;3.33;1.80;;;25.50;56.10;;;;;;5142412;23;20054;-41
2023/02/27 04:40:35;;;;;;;3.05;1.95;;;25.40;57.30;;;;;;5143223;23;20020;-42
2023/02/27 04:43:00;;;;;;;2.60;1.65;;;25.40;55.80;;;;;;5140385;23;20028;-40
2023/02/27 04:45:26;;;;;;;2.30;1.60;;;25.30;56.10;;;;;;5143782;23;20358;-43
2023/02/27 04:48:06;;;;;;;1.92;1.23;;;25.10;56.10;;;;;;5142693;23;20016;-42
2023/02/27 04:50:44;;;;;;;1.92;1.33;;;25.00;56.60;;;;;;5140662;23;20039;-43
2023/02/27 04:53:14;;;;;;;3.22;1.60;;;24.90;56.00;;;;;;5140103;23;20470;-43
2023/02/27 04:55:44;;;;;;;5.15;1.73;;;24.80;56.30;;;;;;5140342;23;20399;-43
2023/02/27 04:58:20;;;;;;;3.60;1.60;;;24.80;56.20;;;;;;5141933;23;20533;-44
2023/02/27 05:00:47;;;;;;;2.67;1.50;;;24.70;56.00;;;;;;5139942;23;20530;-44
2023/02/27 05:03:22;;;;;;;3.85;1.30;;;24.60;56.10;;;;;;5139966;23;20410;-44
2023/02/27 05:05:48;;;;;;;2.60;1.38;;;24.60;55.90;;;;;;5131250;23;20048;-42
2023/02/27 05:08:33;;;;;;;4.00;1.50;;;24.50;56.00;;;;;;5139674;23;20016;-44
2023/02/27 05:11:11;;;;;;;2.63;1.45;;;24.40;56.20;;;;;;5133701;23;20040;-43
2023/02/27 05:13:58;;;;;;;2.65;1.40;;;24.40;56.40;;;;;;5142306;23;20024;-42
2023/02/27 05:16:28;;;;;;;1.83;1.20;;;24.30;56.50;;;;;;5133652;23;20028;-41
2023/02/27 05:18:50;;;;;;;2.45;1.40;;;24.20;56.00;;;;;;5142962;23;20102;-42
2023/02/27 05:21:20;;;;;;;2.33;1.27;;;24.10;56.20;;;;;;5143586;23;20383;-43
2023/02/27 05:24:06;;;;;;;3.28;1.48;;;24.10;56.40;;;;;;5134675;23;20013;-44
2023/02/27 05:27:03;;;;;;;3.35;1.33;;;24.00;56.40;;;;;;5143986;23;20039;-43
2023/02/27 05:29:40;;;;;;;2.75;1.40;;;23.90;56.30;;;;;;5039283;23;20018;-44
2023/02/27 05:32:18;;;;;;;2.78;1.17;;;23.90;56.20;;;;;;5145365;23;20462;-40
2023/02/27 05:34:48;;;;;;;3.50;1.70;;;23.80;55.90;;;;;;5144330;23;20462;-46
2023/02/27 05:37:19;;;;;;;2.70;1.48;;;23.80;56.30;;;;;;5143261;23;20020;-44
2023/02/27 05:39:43;;;;;;;3.22;1.50;;;23.70;56.10;;;;;;5141209;23;20107;-41
2023/02/27 05:42:30;;;;;;;2.05;1.30;;;23.70;56.00;;;;;;5142795;23;20017;-41
2023/02/27 05:45:19;;;;;;;2.08;1.48;;;23.70;55.90;;;;;;5141590;23;20139;-43
2023/02/27 05:48:04;;;;;;;1.75;1.15;;;23.70;55.80;;;;;;5131335;23;20021;-45
2023/02/27 05:50:29;;;;;;;2.03;1.33;;;23.60;55.80;;;;;;5132817;23;20012;-42
2023/02/27 05:52:53;;;;;;;2.53;1.40;;;23.60;56.10;;;;;;5139458;23;20085;-47
2023/02/27 05:55:28;;;;;;;1.92;1.33;;;23.50;55.80;;;;;;5142320;23;20008;-43
2023/02/27 05:57:58;;;;;;;3.40;1.40;;;23.50;55.80;;;;;;5141123;23;20044;-47
2023/02/27 06:00:52;;;;;;;2.38;1.27;;;23.50;55.90;;;;;;5141656;23;20398;-43
2023/02/27 06:03:15;;;;;;;6.90;1.70;;;23.50;55.60;;;;;;5139631;23;20012;-43
2023/02/27 06:05:40;;;;;;;2.00;1.20;;;23.40;56.20;;;;;;5140739;23;20099;-42
2023/02/27 06:08:03;;;;;;;2.20;1.23;;;23.30;56.30;;;;;;5140769;23;20012;-41
2023/02/27 06:10:25;;;;;;;4.07;1.38;;;23.30;56.00;;;;;;5140209;23;20016;-42
2023/02/27 06:12:48;;;;;;;1.50;0.93;;;23.20;56.00;;;;;;5139029;23;20104;-41
2023/02/27 06:15:11;;;;;;;1.90;1.35;;;23.10;56.20;;;;;;5140924;23;20095;-43
2023/02/27 06:17:34;;;;;;;3.40;1.23;;;23.10;56.20;;;;;;5142848;23;20359;-44
2023/02/27 06:19:56;;;;;;;3.67;1.55;;;23.10;57.00;;;;;;5143289;23;20096;-42
2023/02/27 06:22:18;;;;;;;2.90;1.40;;;23.20;57.70;;;;;;5142145;23;20012;-42
2023/02/27 06:24:41;;;;;;;12.18;2.20;;;23.30;58.20;;;;;;5142162;23;20013;-43
2023/02/27 06:27:03;;;;;;;3.33;1.50;;;23.50;59.30;;;;;;5134398;23;20023;-44
2023/02/27 06:29:26;;;;;;;10.38;1.80;;;23.70;58.80;;;;;;5142141;23;20013;-45
2023/02/27 06:31:48;;;;;;;14.25;1.73;;;23.90;59.20;;;;;;5142672;23;20016;-45
2023/02/27 06:34:10;;;;;;;5.93;1.48;;;24.00;59.40;;;;;;5143115;23;20252;-45
2023/02/27 06:36:33;;;;;;;6.38;2.17;;;24.20;60.20;;;;;;5142128;23;20372;-43
2023/02/27 06:38:56;;;;;;;3.78;1.70;;;24.30;59.60;;;;;;5141103;23;20042;-49
2023/02/27 06:41:19;;;;;;;5.95;1.67;;;24.40;59.70;;;;;;5142345;23;20342;-40
2023/02/27 06:43:41;;;;;;;9.85;1.90;;;24.60;60.00;;;;;;5141293;23;20020;-45
2023/02/27 06:46:04;;;;;;;13.25;2.85;;;24.60;60.00;;;;;;5141916;23;20106;-43
2023/02/27 06:48:26;;;;;;;10.20;2.17;;;24.70;60.40;;;;;;5131526;23;20410;-42
2023/02/27 06:50:55;;;;;;;26.08;3.97;;;24.80;60.60;;;;;;5141007;23;20013;-40
2023/02/27 06:53:18;;;;;;;8.85;2.20;;;24.80;60.90;;;;;;5138694;23;20441;-43
2023/02/27 06:55:40;;;;;;;8.90;2.25;;;24.90;60.90;;;;;;5139440;23;20019;-44
2023/02/27 06:58:03;;;;;;;11.35;2.60;;;24.90;61.30;;;;;;5138259;23;20099;-45
2023/02/27 07:00:25;;;;;;;7.13;2.20;;;25.00;61.50;;;;;;5138970;23;20504;-47
2023/02/27 07:02:48;;;;;;;12.77;2.10;;;25.10;61.80;;;;;;5139387;23;20020;-46
2023/02/27 07:05:11;;;;;;;8.38;1.90;;;25.10;61.80;;;;;;5139984;23;20016;-42
2023/02/27 07:07:34;;;;;;;23.42;2.22;;;25.20;61.90;;;;;;5138280;23;20020;-43
2023/02/27 07:09:56;;;;;;;5.90;2.13;;;25.20;62.00;;;;;;5139144;23;20017;-46
2023/02/27 07:12:18;;;;;;;9.38;2.00;;;25.30;62.00;;;;;;5139130;23;20025;-44
2023/02/27 07:14:41;;;;;;;11.77;2.00;;;25.30;62.10;;;;;;5140817;23;20009;-44
2023/02/27 07:17:04;;;;;;;10.80;1.85;;;25.40;62.50;;;;;;5130709;23;20513;-45
2023/02/27 07:19:26;;;;;;;5.55;1.58;;;25.40;62.40;;;;;;5129590;23;20026;-46
2023/02/27 07:21:49;;;;;;;6.57;1.67;;;25.40;62.60;;;;;;5141099;23;20008;-47
2023/02/27 07:24:11;;;;;;;8.52;2.00;;;25.50;62.20;;;;;;5139685;23;20879;-43
2023/02/27 07:26:34;;;;;;;4.15;1.40;;;25.50;62.90;;;;;;5139215;23;20473;-43
2023/02/27 07:28:56;;;;;;;6.13;1.90;;;25.50;63.20;;;;;;5141400;23;20082;-45
2023/02/27 07:31:20;;;;;;;5.00;1.77;;;25.60;63.20;;;;;;5142053;23;20035;-47
2023/02/27 07:33:42;;;;;;;5.78;2.10;;;25.60;63.20;;;;;;5139147;23;20406;-42
2023/02/27 07:36:05;;;;;;;10.52;2.13;;;25.60;63.40;;;;;;5142346;23;20016;-43
2023/02/27 07:38:27;;;;;;;6.30;1.80;;;25.60;63.40;;;;;;5141414;23;20016;-43
2023/02/27 07:40:51;;;;;;;5.07;1.83;;;25.70;63.40;;;;;;5133954;23;20074;-46
2023/02/27 07:43:14;;;;;;;7.65;1.75;;;25.70;63.40;;;;;;5142251;23;20519;-49
2023/02/27 07:45:36;;;;;;;4.97;1.45;;;25.70;64.20;;;;;;5143475;23;20035;-43
2023/02/27 07:47:59;;;;;;;9.05;1.67;;;25.70;64.20;;;;;;5140735;23;20324;-45
2023/02/27 07:50:21;;;;;;;6.25;1.85;;;25.70;64.10;;;;;;5141459;23;20092;-43
2023/02/27 07:52:44;;;;;;;6.95;1.60;;;25.80;64.10;;;;;;5141318;23;20024;-42
2023/02/27 07:55:08;;;;;;;7.93;1.63;;;25.80;64.10;;;;;;5140861;23;20013;-44
2023/02/27 07:57:30;;;;;;;5.13;1.83;;;25.90;64.20;;;;;;5136943;23;20024;-42
2023/02/27 07:59:53;;;;;;;5.20;1.55;;;25.90;64.10;;;;;;5131983;23;20016;-42
2023/02/27 08:02:15;;;;;;;4.40;1.67;;;25.90;63.90;;;;;;5136799;23;20012;-46
2023/02/27 08:04:38;;;;;;;5.50;1.58;;;26.00;64.10;;;;;;5136484;23;20013;-45
2023/02/27 08:07:01;;;;;;;5.05;1.33;;;26.00;64.10;;;;;;5137387;23;20044;-51
2023/02/27 08:09:23;;;;;;;;;;;26.00;64.00;;;;;;5131684;23;20078;-46
2023/02/27 08:11:46;;;;;;;11.57;1.35;;;26.10;64.70;;;;;;5142859;23;19990;-47
2023/02/27 08:14:08;;;;;;;4.07;1.90;;;26.10;64.00;;;;;;5134929;23;20012;-41
2023/02/27 08:16:31;;;;;;;3.55;1.40;;;26.10;63.90;;;;;;5142826;23;20052;-42
2023/02/27 08:18:53;;;;;;;3.80;1.50;;;26.10;64.00;;;;;;5142216;23;20028;-42
2023/02/27 08:21:16;;;;;;;4.22;1.75;;;26.10;64.00;;;;;;5142240;23;20064;-42
2023/02/27 08:23:38;;;;;;;4.97;1.77;;;26.10;64.00;;;;;;5143772;23;20362;-43
2023/02/27 08:26:01;;;;;;;5.32;1.85;;;26.10;64.10;;;;;;5141687;23;20009;-42
2023/02/27 08:28:25;;;;;;;3.42;1.50;;;26.10;64.20;;;;;;5142574;23;20074;-42
2023/02/27 08:30:48;;;;;;;5.63;1.70;;;26.10;64.10;;;;;;5132918;23;20023;-43
2023/02/27 08:33:10;;;;;;;4.97;1.80;;;26.10;64.20;;;;;;5141768;23;20506;-47
2023/02/27 08:35:33;;;;;;;4.15;1.77;;;26.10;64.10;;;;;;5131796;23;20016;-43
2023/02/27 08:37:55;;;;;;;4.28;1.83;;;26.10;64.10;;;;;;5140656;23;20013;-42
2023/02/27 08:40:18;;;;;;;2.58;1.45;;;26.10;64.00;;;;;;5142177;23;20517;-48
2023/02/27 08:42:40;;;;;;;8.40;2.17;;;26.20;64.00;;;;;;5141636;23;20023;-45
2023/02/27 08:45:03;;;;;;;5.30;1.98;;;26.10;64.80;;;;;;5138615;23;20446;-46
2023/02/27 08:47:25;;;;;;;6.90;1.77;;;26.10;64.90;;;;;;5140019;23;20249;-43
2023/02/27 08:49:49;;;;;;;2.30;1.30;;;26.10;65.00;;;;;;5140788;23;20016;-48
2023/02/27 08:52:11;;;;;;;52.72;4.35;;;26.10;65.10;;;;;;5140504;23;20031;-46
2023/02/27 08:54:34;;;;;;;12.75;2.75;;;26.10;65.50;;;;;;5130926;23;20019;-48
2023/02/27 08:56:56;;;;;;;11.60;2.20;;;26.10;65.40;;;;;;5140044;23;20020;-44
2023/02/27 08:59:19;;;;;;;7.75;2.17;;;26.10;65.50;;;;;;5126551;23;20017;-45
2023/02/27 09:01:42;;;;;;;7.82;2.38;;;26.10;65.60;;;;;;5137755;23;20078;-45
2023/02/27 09:04:05;;;;;;;8.02;2.03;;;26.10;65.50;;;;;;5130821;23;20394;-44
2023/02/27 09:06:28;;;;;;;8.15;2.10;;;26.20;65.70;;;;;;5139194;23;20016;-44
2023/02/27 09:08:50;;;;;;;10.30;2.00;;;26.20;65.70;;;;;;5138602;23;20059;-44
2023/02/27 09:11:12;;;;;;;4.70;1.70;;;26.20;65.60;;;;;;5138507;23;20016;-44
2023/02/27 09:13:35;;;;;;;5.80;1.58;;;26.20;65.50;;;;;;5139186;23;20449;-45
2023/02/27 09:15:58;;;;;;;4.00;1.95;;;26.20;65.40;;;;;;5137749;23;20466;-43
2023/02/27 09:18:21;;;;;;;2.30;1.45;;;26.30;65.40;;;;;;5139398;23;20119;-45
2023/02/27 09:20:43;;;;;;;2.85;1.83;;;26.30;65.40;;;;;;5140455;23;20086;-45
2023/02/27 09:23:05;;;;;;;4.57;1.70;;;26.30;65.40;;;;;;5141277;23;20020;-43
2023/02/27 09:25:28;;;;;;;3.92;1.88;;;26.30;65.30;;;;;;5139602;23;20067;-44
2023/02/27 09:27:51;;;;;;;28.52;3.33;;;26.30;65.30;;;;;;5141580;23;20350;-45
2023/02/27 09:30:13;;;;;;;15.02;2.17;;;26.30;65.40;;;;;;5140477;23;20020;-45
2023/02/27 09:32:36;;;;;;;10.93;2.08;;;26.30;65.20;;;;;;5140716;23;20466;-46
2023/02/27 09:34:59;;;;;;;8.20;2.20;;;26.40;65.20;;;;;;5132523;23;20501;-44
2023/02/27 09:37:23;;;;;;;21.23;2.50;;;26.40;65.20;;;;;;5133475;23;20481;-44
2023/02/27 09:39:46;;;;;;;5.00;1.58;;;26.40;65.20;;;;;;5138458;23;20017;-45
2023/02/27 09:42:20;;;;;;;4.97;2.03;;;26.30;65.20;;;;;;5131989;23;20020;-46
2023/02/27 09:44:51;;;;;;;3.80;1.40;;;26.40;65.20;;;;;;5140864;23;20096;-49
2023/02/27 09:47:16;;;;;;;8.88;2.30;;;26.40;65.30;;;;;;5138304;23;20020;-47
2023/02/27 09:49:57;;;;;;;3.83;1.38;;;26.40;65.20;;;;;;5123808;23;20328;-46
2023/02/27 09:52:19;;;;;;;7.25;1.85;;;26.40;65.30;;;;;;5123822;23;20028;-52
2023/02/27 09:54:42;;;;;;;4.00;1.73;;;26.40;65.30;;;;;;5130608;23;20013;-44
2023/02/27 09:57:11;;;;;;;2.72;1.45;;;26.40;65.40;;;;;;5133760;23;20634;-44
2023/02/27 09:59:53;;;;;;;3.33;1.55;;;26.40;65.20;;;;;;5134071;23;20529;-46
2023/02/27 10:02:28;;;;;;;4.65;2.15;;;26.50;65.30;;;;;;5125655;23;20021;-47
2023/02/27 10:04:59;;;;;;;5.05;1.58;;;26.50;65.20;;;;;;5125140;23;20012;-45
2023/02/27 10:07:51;;;;;;;3.90;1.60;;;26.50;65.10;;;;;;5136601;23;20020;-44
2023/02/27 10:10:30;;;;;;;6.57;1.80;;;26.60;65.20;;;;;;5132970;23;20024;-42
2023/02/27 10:13:05;;;;;;;2.45;1.55;;;26.60;65.10;;;;;;5135542;23;20029;-44
2023/02/27 10:15:34;;;;;;;3.92;1.70;;;26.60;65.10;;;;;;5135084;23;20020;-48
2023/02/27 10:18:24;;;;;;;11.02;1.70;;;26.60;65.00;;;;;;5134594;23;20020;-45
2023/02/27 10:20:55;;;;;;;4.90;1.83;;;26.60;65.00;;;;;;5135287;23;20348;-47
2023/02/27 10:23:22;;;;;;;3.78;1.58;;;26.60;65.00;;;;;;5135236;23;20021;-46
2023/02/27 10:25:48;;;;;;;4.82;1.50;;;26.60;65.00;;;;;;5135265;23;20028;-46
2023/02/27 10:28:13;;;;;;;3.05;1.83;;;26.60;64.90;;;;;;5134585;23;20098;-46
2023/02/27 10:30:36;;;;;;;3.42;1.40;;;26.60;64.90;;;;;;5135548;23;20036;-50
2023/02/27 10:33:15;;;;;;;4.32;1.70;;;26.60;64.80;;;;;;5134355;23;20335;-45
2023/02/27 10:35:41;;;;;;;4.38;1.65;;;26.60;64.80;;;;;;5126064;23;20031;-49
2023/02/27 10:38:11;;;;;;;3.80;1.80;;;26.60;64.70;;;;;;5134499;23;20354;-45
2023/02/27 10:40:36;;;;;;;4.47;1.75;;;26.70;64.70;;;;;;5134573;23;20117;-50
2023/02/27 10:43:01;;;;;;;3.17;1.80;;;26.70;64.70;;;;;;5123267;23;20103;-49
2023/02/27 10:45:24;;;;;;;3.60;2.15;;;26.70;64.60;;;;;;5134977;23;20013;-44
2023/02/27 10:47:47;;;;;;;6.05;1.92;;;26.70;64.50;;;;;;5132972;23;20110;-45
2023/02/27 10:50:27;;;;;;;2.92;1.50;;;26.70;64.60;;;;;;5133104;23;20017;-51
2023/02/27 10:52:52;;;;;;;3.20;1.88;;;26.70;64.50;;;;;;5132730;23;20514;-45
2023/02/27 10:55:23;;;;;;;3.35;1.80;;;26.70;64.40;;;;;;5135456;23;20028;-50
2023/02/27 10:57:46;;;;;;;4.43;2.15;;;26.70;64.30;;;;;;5141193;23;20016;-47
2023/02/27 11:00:27;;;;;;;3.43;1.63;;;26.80;64.30;;;;;;5131429;23;20063;-47
2023/02/27 11:02:51;;;;;;;2.00;1.60;;;26.80;64.30;;;;;;5140395;23;20071;-50
2023/02/27 11:05:25;;;;;;;2.65;1.83;;;26.80;64.30;;;;;;5141851;23;20055;-47
2023/02/27 11:07:47;;;;;;;4.90;2.10;;;26.80;64.30;;;;;;5141391;23;20325;-46
2023/02/27 11:10:23;;;;;;;3.08;1.90;;;26.80;64.40;;;;;;5141006;23;20471;-47
2023/02/27 11:13:06;;;;;;;2.35;1.65;;;26.80;64.20;;;;;;5141497;23;20468;-45
2023/02/27 11:15:32;;;;;;;2.17;1.50;;;26.80;64.20;;;;;;5141962;23;20020;-46
2023/02/27 11:17:54;;;;;;;3.10;1.50;;;26.80;64.20;;;;;;5129591;23;20020;-47
2023/02/27 11:20:39;;;;;;;3.38;1.95;;;26.80;64.20;;;;;;5143168;23;20019;-48
2023/02/27 11:23:19;;;;;;;4.07;1.77;;;26.80;64.20;;;;;;5142778;23;20411;-46
2023/02/27 11:25:43;;;;;;;3.80;1.60;;;26.80;64.10;;;;;;5142265;23;20347;-49
2023/02/27 11:28:25;;;;;;;2.25;1.83;;;26.80;64.10;;;;;;5142702;23;20430;-50
2023/02/27 11:31:00;;;;;;;2.45;1.98;;;26.80;64.10;;;;;;5142058;23;20024;-50
2023/02/27 11:33:23;;;;;;;3.70;1.90;;;26.80;64.00;;;;;;5141538;23;20034;-48
2023/02/27 11:35:52;;;;;;;2.75;1.67;;;26.80;64.00;;;;;;5142378;23;20450;-49
2023/02/27 11:38:23;;;;;;;4.72;1.83;;;26.80;64.00;;;;;;5141600;23;20016;-48
2023/02/27 11:41:04;;;;;;;3.08;1.58;;;26.80;63.90;;;;;;5143005;23;20013;-45
2023/02/27 11:43:33;;;;;;;2.80;1.67;;;26.80;63.90;;;;;;5142584;23;20419;-51
2023/02/27 11:46:05;;;;;;;2.70;1.70;;;26.80;63.90;;;;;;5140648;23;20038;-49
2023/02/27 11:48:49;;;;;;;3.05;1.70;;;26.90;63.90;;;;;;5141675;23;20024;-46
2023/02/27 11:51:21;;;;;;;3.58;1.60;;;26.90;64.00;;;;;;5131730;23;20040;-48
2023/02/27 11:53:59;;;;;;;3.25;1.80;;;26.90;63.80;;;;;;5141070;23;20108;-47
2023/02/27 11:56:36;;;;;;;4.90;1.90;;;26.90;63.80;;;;;;5143308;23;20040;-47
2023/02/27 11:59:11;;;;;;;3.25;1.58;;;26.80;63.70;;;;;;5142288;23;20020;-47
2023/02/27 12:01:52;;;;;;;3.33;1.80;;;26.90;63.80;;;;;;5141879;23;20398;-47
2023/02/27 12:04:28;;;;;;;2.83;1.80;;;26.90;63.80;;;;;;5142179;23;20087;-46
2023/02/27 12:07:02;;;;;;;3.05;1.63;;;26.90;63.80;;;;;;5139678;23;20466;-45
2023/02/27 12:09:50;;;;;;;2.67;1.67;;;26.90;63.70;;;;;;5140470;23;20485;-46
2023/02/27 12:12:48;;;;;;;1.92;1.60;;;26.90;63.70;;;;;;5142076;23;20028;-47
2023/02/27 12:15:31;;;;;;;2.65;1.40;;;26.90;63.70;;;;;;5093568;23;20020;-48
2023/02/27 12:18:06;;;;;;;4.80;1.70;;;26.90;63.70;;;;;;5138069;23;20052;-45
2023/02/27 12:20:51;;;;;;;5.28;1.70;;;26.90;63.70;;;;;;5131913;23;20020;-44
2023/02/27 12:23:25;;;;;;;;;;;26.90;63.70;;;;;;5133292;23;20017;-45
2023/02/27 12:25:47;;;;;;;;;;;26.90;63.60;;;;;;5140982;23;19918;-47
2023/02/27 12:28:38;;;;;;;4.78;1.80;;;27.00;63.60;;;;;;5140478;23;19908;-43
2023/02/27 12:31:19;;;;;;;3.78;1.83;;;27.00;63.60;;;;;;5113565;23;20123;-50
2023/02/27 12:33:48;;;;;;;3.03;1.60;;;27.00;63.50;;;;;;5132393;23;20024;-45
2023/02/27 12:36:14;;;;;;;2.40;1.30;;;27.00;63.50;;;;;;5141402;23;20514;-44
2023/02/27 12:38:37;;;;;;;4.03;1.77;;;27.00;63.50;;;;;;5111488;23;20020;-47
2023/02/27 12:41:08;;;;;;;2.78;1.50;;;27.00;63.60;;;;;;5143463;23;20020;-48
2023/02/27 12:43:49;;;;;;;2.67;1.63;;;27.00;63.60;;;;;;5141602;23;20017;-51
2023/02/27 12:46:46;;;;;;;3.60;1.60;;;27.00;63.60;;;;;;5138374;23;20020;-48
2023/02/27 12:49:21;;;;;;;2.47;1.60;;;27.00;63.60;;;;;;5090305;23;20017;-49
2023/02/27 12:51:58;;;;;;;3.38;1.85;;;27.00;63.50;;;;;;5141005;23;20569;-46
2023/02/27 12:54:20;;;;;;;2.42;1.45;;;27.00;63.50;;;;;;5142741;23;20013;-50
2023/02/27 12:56:58;;;;;;;3.72;1.60;;;27.00;63.50;;;;;;5140671;23;20012;-49
2023/02/27 12:59:47;;;;;;;2.70;1.55;;;27.00;63.50;;;;;;5141475;23;20402;-49
2023/02/27 13:02:33;;;;;;;1.40;1.15;;;27.00;63.50;;;;;;5130809;23;20017;-51